General Aviation Weather

Text Reports

Enter one or more of the following location identifiers separated by a space:

Zip Code, Four-Character ICAO or Three-Character IATA airport codes.

METAR - Aviation Routine Weather Report
KLDM - Ludington, Michigan
Updated at 7:55 PM GMT on December 19, 2014 (2:55 PM EST):
METAR KLDM 191955Z AUTO 00000KT 10SM BKN024 M01/M06 A3027 RMK AO2 T10071059
TAF - Terminal Area Forecast
KLDM - Ludington, Michigan
Updated at 7:55 PM GMT on December 19, 2014 (2:55 PM EST):
No TAF is currently available for this location.
Decoded:
No decoded TAF is available.
PIREP - Pilot Weather Report
KLDM - Ludington, Michigan
Updated at 7:55 PM GMT on December 19, 2014 (2:55 PM EST):
No PIREP is currently available for this location.
AIRMET - Airmens Meteorological Information
KLDM - Ludington, Michigan
Updated at 7:55 PM GMT on December 19, 2014 (2:55 PM EST):
No AIRMET is currently available for this location.
SIGMET - Significant Meteorological Information
KLDM - Ludington, Michigan
Updated at 7:55 PM GMT on December 19, 2014 (2:55 PM EST):
No SIGMET is currently available for this location.
NOTAM - Notice to Airmen
KLDM - Ludington, Michigan
Updated at 7:55 PM GMT on December 19, 2014 (2:55 PM EST):
No NOTAM is currently available for this location.
Forecast Area
KLDM - Ludington, Michigan
Updated at 7:55 PM GMT on December 19, 2014 (2:55 PM EST):
No NOTAM is currently available for this location.
Aviation Weather Maps